sensor_id;sensor_type;location;lat;lon;timestamp;pressure;altitude;pressure_sealevel;temperature;humidity
22283;BME280;11310;51.528;21.204;2023-05-07T00:01:14;100385.25;;;6.24;100.00
22283;BME280;11310;51.528;21.204;2023-05-07T00:03:45;100386.16;;;6.23;100.00
22283;BME280;11310;51.528;21.204;2023-05-07T00:06:14;100382.59;;;6.27;100.00
22283;BME280;11310;51.528;21.204;2023-05-07T00:08:43;100380.84;;;6.27;100.00
22283;BME280;11310;51.528;21.204;2023-05-07T00:11:14;100376.56;;;6.25;100.00
22283;BME280;11310;51.528;21.204;2023-05-07T00:13:43;100380.88;;;6.26;100.00
22283;BME280;11310;51.528;21.204;2023-05-07T00:16:15;100364.50;;;6.21;100.00
22283;BME280;11310;51.528;21.204;2023-05-07T00:18:43;100380.91;;;6.24;100.00
22283;BME280;11310;51.528;21.204;2023-05-07T00:21:12;100368.84;;;6.20;100.00
22283;BME280;11310;51.528;21.204;2023-05-07T00:23:41;100383.63;;;6.20;100.00
22283;BME280;11310;51.528;21.204;2023-05-07T00:26:10;100374.97;;;6.19;100.00
22283;BME280;11310;51.528;21.204;2023-05-07T00:28:43;100370.69;;;6.17;100.00
22283;BME280;11310;51.528;21.204;2023-05-07T00:31:13;100382.00;;;6.16;100.00
22283;BME280;11310;51.528;21.204;2023-05-07T00:33:42;100378.56;;;6.14;100.00
22283;BME280;11310;51.528;21.204;2023-05-07T00:36:11;100383.84;;;6.11;100.00
22283;BME280;11310;51.528;21.204;2023-05-07T00:38:40;100388.19;;;6.10;100.00
22283;BME280;11310;51.528;21.204;2023-05-07T00:41:09;100389.09;;;6.09;100.00
22283;BME280;11310;51.528;21.204;2023-05-07T00:43:38;100387.41;;;6.07;100.00
22283;BME280;11310;51.528;21.204;2023-05-07T00:46:09;100390.84;;;6.07;100.00
22283;BME280;11310;51.528;21.204;2023-05-07T00:48:39;100391.69;;;6.09;100.00
22283;BME280;11310;51.528;21.204;2023-05-07T00:51:09;100393.41;;;6.09;100.00
22283;BME280;11310;51.528;21.204;2023-05-07T00:53:40;100383.84;;;6.11;100.00
22283;BME280;11310;51.528;21.204;2023-05-07T00:56:09;100400.25;;;6.14;100.00
22283;BME280;11310;51.528;21.204;2023-05-07T00:58:38;100399.38;;;6.14;100.00
22283;BME280;11310;51.528;21.204;2023-05-07T01:01:10;100387.31;;;6.10;100.00
22283;BME280;11310;51.528;21.204;2023-05-07T01:03:38;100406.38;;;6.12;100.00
22283;BME280;11310;51.528;21.204;2023-05-07T01:06:09;100397.81;;;6.07;100.00
22283;BME280;11310;51.528;21.204;2023-05-07T01:08:41;100396.00;;;6.10;100.00
22283;BME280;11310;51.528;21.204;2023-05-07T01:11:10;100395.97;;;6.12;100.00
22283;BME280;11310;51.528;21.204;2023-05-07T01:13:41;100399.47;;;6.11;100.00
22283;BME280;11310;51.528;21.204;2023-05-07T01:16:12;100392.47;;;6.13;100.00
22283;BME280;11310;51.528;21.204;2023-05-07T01:18:41;100387.25;;;6.13;100.00
22283;BME280;11310;51.528;21.204;2023-05-07T01:21:11;100391.66;;;6.11;100.00
22283;BME280;11310;51.528;21.204;2023-05-07T01:23:43;100392.53;;;6.10;100.00
22283;BME280;11310;51.528;21.204;2023-05-07T01:26:12;100389.84;;;6.14;100.00
22283;BME280;11310;51.528;21.204;2023-05-07T01:28:44;100398.47;;;6.15;100.00
22283;BME280;11310;51.528;21.204;2023-05-07T01:31:14;100394.06;;;6.20;100.00
22283;BME280;11310;51.528;21.204;2023-05-07T01:33:46;100400.88;;;6.24;100.00
22283;BME280;11310;51.528;21.204;2023-05-07T01:36:17;100393.16;;;6.21;100.00
22283;BME280;11310;51.528;21.204;2023-05-07T01:38:48;100402.75;;;6.19;100.00
22283;BME280;11310;51.528;21.204;2023-05-07T01:41:17;100399.31;;;6.17;100.00
22283;BME280;11310;51.528;21.204;2023-05-07T01:43:47;100404.53;;;6.17;100.00
22283;BME280;11310;51.528;21.204;2023-05-07T01:46:17;100413.25;;;6.16;100.00
22283;BME280;11310;51.528;21.204;2023-05-07T01:48:47;100414.94;;;6.17;100.00
22283;BME280;11310;51.528;21.204;2023-05-07T01:51:16;100412.41;;;6.14;100.00
22283;BME280;11310;51.528;21.204;2023-05-07T01:53:48;100415.00;;;6.14;100.00
22283;BME280;11310;51.528;21.204;2023-05-07T01:56:19;100402.94;;;6.10;100.00
22283;BME280;11310;51.528;21.204;2023-05-07T01:58:49;100415.00;;;6.14;100.00
22283;BME280;11310;51.528;21.204;2023-05-07T02:01:20;100415.13;;;6.09;100.00
22283;BME280;11310;51.528;21.204;2023-05-07T02:04:00;100413.44;;;6.07;100.00
22283;BME280;11310;51.528;21.204;2023-05-07T02:06:31;100416.91;;;6.06;100.00
22283;BME280;11310;51.528;21.204;2023-05-07T02:09:07;100418.72;;;6.04;100.00
22283;BME280;11310;51.528;21.204;2023-05-07T02:11:58;100410.91;;;6.04;100.00
22283;BME280;11310;51.528;21.204;2023-05-07T02:14:31;100413.50;;;6.04;100.00
22283;BME280;11310;51.528;21.204;2023-05-07T02:17:01;100413.50;;;6.04;100.00
22283;BME280;11310;51.528;21.204;2023-05-07T02:19:36;100413.50;;;6.04;100.00
22283;BME280;11310;51.528;21.204;2023-05-07T02:22:16;100420.41;;;6.05;100.00
22283;BME280;11310;51.528;21.204;2023-05-07T02:24:52;100417.78;;;6.06;100.00
22283;BME280;11310;51.528;21.204;2023-05-07T02:27:21;100404.75;;;6.08;100.00
22283;BME280;11310;51.528;21.204;2023-05-07T02:29:52;100416.06;;;6.05;100.00
22283;BME280;11310;51.528;21.204;2023-05-07T02:32:22;100417.78;;;6.06;100.00
22283;BME280;11310;51.528;21.204;2023-05-07T02:34:54;100416.09;;;6.04;100.00
22283;BME280;11310;51.528;21.204;2023-05-07T02:37:29;100418.72;;;6.04;100.00
22283;BME280;11310;51.528;21.204;2023-05-07T02:40:01;100416.97;;;6.04;100.00
22283;BME280;11310;51.528;21.204;2023-05-07T02:42:32;100421.22;;;6.08;100.00
22283;BME280;11310;51.528;21.204;2023-05-07T02:45:12;100417.91;;;6.02;100.00
22283;BME280;11310;51.528;21.204;2023-05-07T02:47:44;100428.25;;;6.03;100.00
22283;BME280;11310;51.528;21.204;2023-05-07T02:50:13;100423.16;;;5.99;100.00
22283;BME280;11310;51.528;21.204;2023-05-07T02:52:42;100427.47;;;6.00;100.00
22283;BME280;11310;51.528;21.204;2023-05-07T02:55:13;100429.28;;;5.98;100.00
22283;BME280;11310;51.528;21.204;2023-05-07T02:57:44;100434.34;;;6.04;100.00
22283;BME280;11310;51.528;21.204;2023-05-07T03:00:21;100434.31;;;6.05;100.00
22283;BME280;11310;51.528;21.204;2023-05-07T03:03:21;100430.09;;;6.00;100.00
22283;BME280;11310;51.528;21.204;2023-05-07T03:05:51;100432.69;;;6.00;100.00
22283;BME280;11310;51.528;21.204;2023-05-07T03:08:23;100441.38;;;6.00;100.00
22283;BME280;11310;51.528;21.204;2023-05-07T03:10:54;100437.88;;;6.01;100.00
22283;BME280;11310;51.528;21.204;2023-05-07T03:13:26;100445.66;;;6.03;100.00
22283;BME280;11310;51.528;21.204;2023-05-07T03:15:56;100452.53;;;6.05;100.00
22283;BME280;11310;51.528;21.204;2023-05-07T03:18:26;100449.97;;;6.04;100.00
22283;BME280;11310;51.528;21.204;2023-05-07T03:20:55;100449.97;;;6.04;100.00
22283;BME280;11310;51.528;21.204;2023-05-07T03:23:23;100456.88;;;6.05;100.00
22283;BME280;11310;51.528;21.204;2023-05-07T03:26:14;100451.66;;;6.05;100.00
22283;BME280;11310;51.528;21.204;2023-05-07T03:28:44;100456.06;;;6.03;100.00
22283;BME280;11310;51.528;21.204;2023-05-07T03:31:17;100464.72;;;6.03;100.00
22283;BME280;11310;51.528;21.204;2023-05-07T03:33:53;100471.66;;;6.04;100.00
22283;BME280;11310;51.528;21.204;2023-05-07T03:36:23;100471.72;;;6.01;100.00
22283;BME280;11310;51.528;21.204;2023-05-07T03:38:55;100463.78;;;6.06;100.00
22283;BME280;11310;51.528;21.204;2023-05-07T03:41:32;100466.41;;;6.06;100.00
22283;BME280;11310;51.528;21.204;2023-05-07T03:44:01;100471.56;;;6.09;100.00
22283;BME280;11310;51.528;21.204;2023-05-07T03:46:30;100471.53;;;6.10;100.00
22283;BME280;11310;51.528;21.204;2023-05-07T03:49:00;100475.75;;;6.16;100.00
22283;BME280;11310;51.528;21.204;2023-05-07T03:51:30;100479.22;;;6.15;100.00
22283;BME280;11310;51.528;21.204;2023-05-07T03:53:59;100480.97;;;6.16;100.00
22283;BME280;11310;51.528;21.204;2023-05-07T03:56:33;100479.19;;;6.18;100.00
22283;BME280;11310;51.528;21.204;2023-05-07T03:59:01;100487.84;;;6.18;100.00
22283;BME280;11310;51.528;21.204;2023-05-07T04:01:31;100486.97;;;6.19;100.00
22283;BME280;11310;51.528;21.204;2023-05-07T04:04:00;100489.56;;;6.19;100.00
22283;BME280;11310;51.528;21.204;2023-05-07T04:06:30;100490.38;;;6.21;100.00
22283;BME280;11310;51.528;21.204;2023-05-07T04:09:08;100490.34;;;6.23;100.00
22283;BME280;11310;51.528;21.204;2023-05-07T04:11:42;100486.81;;;6.25;100.00
22283;BME280;11310;51.528;21.204;2023-05-07T04:14:11;100486.78;;;6.27;100.00
22283;BME280;11310;51.528;21.204;2023-05-07T04:16:40;100491.09;;;6.28;100.00
22283;BME280;11310;51.528;21.204;2023-05-07T04:19:15;100491.06;;;6.29;100.00
22283;BME280;11310;51.528;21.204;2023-05-07T04:22:00;100488.41;;;6.32;100.00
22283;BME280;11310;51.528;21.204;2023-05-07T04:24:32;100493.66;;;6.31;100.00
22283;BME280;11310;51.528;21.204;2023-05-07T04:27:04;100497.16;;;6.30;100.00
22283;BME280;11310;51.528;21.204;2023-05-07T04:29:34;100491.06;;;6.31;100.00
22283;BME280;11310;51.528;21.204;2023-05-07T04:32:03;100501.44;;;6.32;100.00
22283;BME280;11310;51.528;21.204;2023-05-07T04:34:33;100511.03;;;6.30;100.00
22283;BME280;11310;51.528;21.204;2023-05-07T04:37:02;100509.34;;;6.28;100.00
22283;BME280;11310;51.528;21.204;2023-05-07T04:39:34;100505.81;;;6.30;100.00
22283;BME280;11310;51.528;21.204;2023-05-07T04:42:08;100512.66;;;6.36;100.00
22283;BME280;11310;51.528;21.204;2023-05-07T04:44:37;100511.84;;;6.34;100.00
22283;BME280;11310;51.528;21.204;2023-05-07T04:47:05;100515.25;;;6.36;100.00
22283;BME280;11310;51.528;21.204;2023-05-07T04:49:37;100516.16;;;6.35;100.00
22283;BME280;11310;51.528;21.204;2023-05-07T04:52:11;100519.78;;;6.26;100.00
22283;BME280;11310;51.528;21.204;2023-05-07T04:54:46;100525.91;;;6.24;100.00
22283;BME280;11310;51.528;21.204;2023-05-07T04:57:19;100527.56;;;6.29;100.00
22283;BME280;11310;51.528;21.204;2023-05-07T04:59:55;100536.16;;;6.33;100.00
22283;BME280;11310;51.528;21.204;2023-05-07T05:02:37;100543.84;;;6.40;100.00
22283;BME280;11310;51.528;21.204;2023-05-07T05:05:23;100539.41;;;6.44;100.00
22283;BME280;11310;51.528;21.204;2023-05-07T05:07:55;100545.41;;;6.47;100.00
22283;BME280;11310;51.528;21.204;2023-05-07T05:10:31;100538.50;;;6.46;100.00
22283;BME280;11310;51.528;21.204;2023-05-07T05:13:02;100547.22;;;6.45;100.00
22283;BME280;11310;51.528;21.204;2023-05-07T05:15:33;100544.63;;;6.44;100.00
22283;BME280;11310;51.528;21.204;2023-05-07T05:18:07;100547.28;;;6.41;100.00
22283;BME280;11310;51.528;21.204;2023-05-07T05:20:36;100559.38;;;6.43;100.00
22283;BME280;11310;51.528;21.204;2023-05-07T05:23:05;100559.50;;;6.39;100.00
22283;BME280;11310;51.528;21.204;2023-05-07T05:25:34;100558.75;;;6.34;100.00
22283;BME280;11310;51.528;21.204;2023-05-07T05:28:04;100563.88;;;6.37;100.00
22283;BME280;11310;51.528;21.204;2023-05-07T05:30:34;100571.66;;;6.38;100.00
22283;BME280;11310;51.528;21.204;2023-05-07T05:33:03;100574.25;;;6.40;100.00
22283;BME280;11310;51.528;21.204;2023-05-07T05:35:32;100570.75;;;6.41;100.00
22283;BME280;11310;51.528;21.204;2023-05-07T05:38:04;100573.28;;;6.44;100.00
22283;BME280;11310;51.528;21.204;2023-05-07T05:40:34;100572.38;;;6.46;100.00
22283;BME280;11310;51.528;21.204;2023-05-07T05:43:05;100575.78;;;6.48;100.00
22283;BME280;11310;51.528;21.204;2023-05-07T05:45:36;100577.47;;;6.51;100.00
22283;BME280;11310;51.528;21.204;2023-05-07T05:48:06;100576.59;;;6.52;100.00
22283;BME280;11310;51.528;21.204;2023-05-07T05:50:38;100582.69;;;6.51;100.00
22283;BME280;11310;51.528;21.204;2023-05-07T05:53:07;100576.66;;;6.49;100.00
22283;BME280;11310;51.528;21.204;2023-05-07T05:55:36;100587.09;;;6.49;100.00
22283;BME280;11310;51.528;21.204;2023-05-07T05:58:06;100592.31;;;6.47;100.00
22283;BME280;11310;51.528;21.204;2023-05-07T06:00:40;100598.41;;;6.48;100.00
22283;BME280;11310;51.528;21.204;2023-05-07T06:03:10;100594.91;;;6.49;100.00
22283;BME280;11310;51.528;21.204;2023-05-07T06:05:41;100604.41;;;6.51;100.00
22283;BME280;11310;51.528;21.204;2023-05-07T06:08:10;100607.91;;;6.50;100.00
22283;BME280;11310;51.528;21.204;2023-05-07T06:10:39;100605.31;;;6.49;100.00
22283;BME280;11310;51.528;21.204;2023-05-07T06:13:11;100616.66;;;6.46;100.00
22283;BME280;11310;51.528;21.204;2023-05-07T06:15:49;100618.31;;;6.50;100.00
22283;BME280;11310;51.528;21.204;2023-05-07T06:18:57;100620.00;;;6.54;100.00
22283;BME280;11310;51.528;21.204;2023-05-07T06:21:38;100619.25;;;6.48;100.00
22283;BME280;11310;51.528;21.204;2023-05-07T06:24:08;100625.31;;;6.48;100.00
22283;BME280;11310;51.528;21.204;2023-05-07T06:26:38;100628.81;;;6.47;100.00
22283;BME280;11310;51.528;21.204;2023-05-07T06:29:09;100633.94;;;6.52;100.00
22283;BME280;11310;51.528;21.204;2023-05-07T06:31:40;100621.75;;;6.52;100.00
22283;BME280;11310;51.528;21.204;2023-05-07T06:34:10;100631.25;;;6.55;100.00
22283;BME280;11310;51.528;21.204;2023-05-07T06:36:42;100631.34;;;6.52;100.00
22283;BME280;11310;51.528;21.204;2023-05-07T06:39:31;100639.09;;;6.53;100.00
22283;BME280;11310;51.528;21.204;2023-05-07T06:42:00;100640.84;;;6.54;100.00
22283;BME280;11310;51.528;21.204;2023-05-07T06:44:33;100642.53;;;6.57;100.00
22283;BME280;11310;51.528;21.204;2023-05-07T06:47:13;100647.66;;;6.60;100.00
22283;BME280;11310;51.528;21.204;2023-05-07T06:49:45;100646.72;;;6.62;100.00
22283;BME280;11310;51.528;21.204;2023-05-07T06:52:17;100648.56;;;6.59;100.00
22283;BME280;11310;51.528;21.204;2023-05-07T06:54:48;100652.97;;;6.55;100.00
22283;BME280;11310;51.528;21.204;2023-05-07T06:57:20;100645.19;;;6.54;100.00
22283;BME280;11310;51.528;21.204;2023-05-07T06:59:50;100648.59;;;6.56;100.00
22283;BME280;11310;51.528;21.204;2023-05-07T07:02:20;100652.88;;;6.60;100.00
22283;BME280;11310;51.528;21.204;2023-05-07T07:04:49;100659.91;;;6.56;100.00
22283;BME280;11310;51.528;21.204;2023-05-07T07:07:19;100663.41;;;6.55;100.00
22283;BME280;11310;51.528;21.204;2023-05-07T07:09:49;100669.44;;;6.56;100.00
22283;BME280;11310;51.528;21.204;2023-05-07T07:12:19;100676.44;;;6.55;100.00
22283;BME280;11310;51.528;21.204;2023-05-07T07:14:53;100675.66;;;6.52;100.00
22283;BME280;11310;51.528;21.204;2023-05-07T07:17:23;100687.00;;;6.48;100.00
22283;BME280;11310;51.528;21.204;2023-05-07T07:19:53;100682.63;;;6.50;100.00
22283;BME280;11310;51.528;21.204;2023-05-07T07:22:22;100682.56;;;6.53;100.00
22283;BME280;11310;51.528;21.204;2023-05-07T07:24:51;100683.38;;;6.55;100.00
22283;BME280;11310;51.528;21.204;2023-05-07T07:27:20;100688.59;;;6.55;100.00
22283;BME280;11310;51.528;21.204;2023-05-07T07:29:49;100685.97;;;6.56;100.00
22283;BME280;11310;51.528;21.204;2023-05-07T07:32:20;100690.22;;;6.60;100.00
22283;BME280;11310;51.528;21.204;2023-05-07T07:34:49;100691.97;;;6.60;100.00
22283;BME280;11310;51.528;21.204;2023-05-07T07:37:17;100699.72;;;6.64;100.00
22283;BME280;11310;51.528;21.204;2023-05-07T07:39:46;100700.56;;;6.65;100.00
22283;BME280;11310;51.528;21.204;2023-05-07T07:42:15;100707.50;;;6.66;100.00
22283;BME280;11310;51.528;21.204;2023-05-07T07:44:45;100715.38;;;6.63;100.00
22283;BME280;11310;51.528;21.204;2023-05-07T07:47:15;100718.00;;;6.63;100.00
22283;BME280;11310;51.528;21.204;2023-05-07T07:49:48;100720.63;;;6.60;100.00
22283;BME280;11310;51.528;21.204;2023-05-07T07:52:18;100727.50;;;6.65;100.00
22283;BME280;11310;51.528;21.204;2023-05-07T07:54:48;100724.78;;;6.70;100.00
22283;BME280;11310;51.528;21.204;2023-05-07T07:57:17;100722.09;;;6.74;100.00
22283;BME280;11310;51.528;21.204;2023-05-07T07:59:49;100710.88;;;6.71;100.00
22283;BME280;11310;51.528;21.204;2023-05-07T08:02:22;100718.44;;;6.83;100.00
22283;BME280;11310;51.528;21.204;2023-05-07T08:04:52;100722.84;;;6.81;100.00
22283;BME280;11310;51.528;21.204;2023-05-07T08:07:24;100718.41;;;6.84;100.00
22283;BME280;11310;51.528;21.204;2023-05-07T08:09:53;100708.72;;;6.91;100.00
22283;BME280;11310;51.528;21.204;2023-05-07T08:12:24;100719.88;;;6.99;100.00
22283;BME280;11310;51.528;21.204;2023-05-07T08:14:53;100706.03;;;6.95;100.00
22283;BME280;11310;51.528;21.204;2023-05-07T08:17:23;100711.19;;;6.98;100.00
22283;BME280;11310;51.528;21.204;2023-05-07T08:19:54;100710.19;;;7.04;100.00
22283;BME280;11310;51.528;21.204;2023-05-07T08:22:23;100707.59;;;7.04;100.00
22283;BME280;11310;51.528;21.204;2023-05-07T08:24:53;100714.56;;;7.02;100.00
22283;BME280;11310;51.528;21.204;2023-05-07T08:27:22;100712.84;;;7.02;100.00
22283;BME280;11310;51.528;21.204;2023-05-07T08:29:51;100717.81;;;7.14;100.00
22283;BME280;11310;51.528;21.204;2023-05-07T08:32:22;100735.91;;;7.22;100.00
22283;BME280;11310;51.528;21.204;2023-05-07T08:34:53;100727.19;;;7.23;100.00
22283;BME280;11310;51.528;21.204;2023-05-07T08:37:23;100732.34;;;7.26;100.00
22283;BME280;11310;51.528;21.204;2023-05-07T08:39:51;100744.44;;;7.30;100.00
22283;BME280;11310;51.528;21.204;2023-05-07T08:42:23;100745.28;;;7.30;100.00
22283;BME280;11310;51.528;21.204;2023-05-07T08:44:57;100749.69;;;7.28;100.00
22283;BME280;11310;51.528;21.204;2023-05-07T08:47:29;100754.97;;;7.24;100.00
22283;BME280;11310;51.528;21.204;2023-05-07T08:50:05;100759.38;;;7.22;100.00
22283;BME280;11310;51.528;21.204;2023-05-07T08:52:35;100754.97;;;7.24;100.00
22283;BME280;11310;51.528;21.204;2023-05-07T08:55:05;100748.06;;;7.23;100.00
22283;BME280;11310;51.528;21.204;2023-05-07T08:57:35;100757.72;;;7.19;100.00
22283;BME280;11310;51.528;21.204;2023-05-07T09:00:08;100763.84;;;7.17;100.00
22283;BME280;11310;51.528;21.204;2023-05-07T09:02:39;100757.69;;;7.21;100.00
22283;BME280;11310;51.528;21.204;2023-05-07T09:05:10;100759.28;;;7.26;100.00
22283;BME280;11310;51.528;21.204;2023-05-07T09:07:41;100763.56;;;7.29;100.00
22283;BME280;11310;51.528;21.204;2023-05-07T09:10:12;100766.06;;;7.35;100.00
22283;BME280;11310;51.528;21.204;2023-05-07T09:12:43;100773.81;;;7.38;100.00
22283;BME280;11310;51.528;21.204;2023-05-07T09:15:13;100774.56;;;7.44;100.00
22283;BME280;11310;51.528;21.204;2023-05-07T09:17:43;100784.06;;;7.47;100.00
22283;BME280;11310;51.528;21.204;2023-05-07T09:20:13;100790.13;;;7.49;100.00
22283;BME280;11310;51.528;21.204;2023-05-07T09:22:43;100786.69;;;7.47;100.00
22283;BME280;11310;51.528;21.204;2023-05-07T09:25:18;100794.59;;;7.44;100.00
22283;BME280;11310;51.528;21.204;2023-05-07T09:28:00;100791.03;;;7.48;100.00
22283;BME280;11310;51.528;21.204;2023-05-07T09:30:30;100797.97;;;7.49;100.00
22283;BME280;11310;51.528;21.204;2023-05-07T09:33:03;100795.44;;;7.44;100.00
22283;BME280;11310;51.528;21.204;2023-05-07T09:35:37;100810.19;;;7.45;100.00
22283;BME280;11310;51.528;21.204;2023-05-07T09:38:10;100817.13;;;7.48;100.00
22283;BME280;11310;51.528;21.204;2023-05-07T09:40:41;100817.00;;;7.54;100.00
22283;BME280;11310;51.528;21.204;2023-05-07T09:43:13;100813.44;;;7.58;100.00
22283;BME280;11310;51.528;21.204;2023-05-07T09:45:48;100818.53;;;7.62;100.00
22283;BME280;11310;51.528;21.204;2023-05-07T09:48:22;100812.41;;;7.65;100.00
22283;BME280;11310;51.528;21.204;2023-05-07T09:50:57;100816.72;;;7.66;100.00
22283;BME280;11310;51.528;21.204;2023-05-07T09:53:33;100815.75;;;7.70;100.00
22283;BME280;11310;51.528;21.204;2023-05-07T09:56:04;100821.81;;;7.73;100.00
22283;BME280;11310;51.528;21.204;2023-05-07T09:58:37;100815.50;;;7.82;100.00
22283;BME280;11310;51.528;21.204;2023-05-07T10:01:06;100827.50;;;7.90;100.00
22283;BME280;11310;51.528;21.204;2023-05-07T10:03:36;100825.59;;;7.97;100.00
22283;BME280;11310;51.528;21.204;2023-05-07T10:06:08;100833.44;;;7.97;100.00
22283;BME280;11310;51.528;21.204;2023-05-07T10:08:38;100829.94;;;7.98;100.00
22283;BME280;11310;51.528;21.204;2023-05-07T10:11:09;100842.91;;;8.02;100.00
22283;BME280;11310;51.528;21.204;2023-05-07T10:13:38;100843.78;;;8.03;100.00
22283;BME280;11310;51.528;21.204;2023-05-07T10:16:09;100843.78;;;8.03;100.00
22283;BME280;11310;51.528;21.204;2023-05-07T10:18:45;100838.56;;;8.01;100.00
22283;BME280;11310;51.528;21.204;2023-05-07T10:21:23;100841.97;;;8.05;100.00
22283;BME280;11310;51.528;21.204;2023-05-07T10:23:59;100846.13;;;8.13;100.00
22283;BME280;11310;51.528;21.204;2023-05-07T10:26:32;100840.75;;;8.21;100.00
22283;BME280;11310;51.528;21.204;2023-05-07T10:29:07;100843.28;;;8.24;100.00
22283;BME280;11310;51.528;21.204;2023-05-07T10:31:55;100849.34;;;8.26;100.00
22283;BME280;11310;51.528;21.204;2023-05-07T10:34:34;100852.94;;;8.22;100.00
22283;BME280;11310;51.528;21.204;2023-05-07T10:37:07;100857.44;;;8.14;100.00
22283;BME280;11310;51.528;21.204;2023-05-07T10:39:37;100843.50;;;8.13;100.00
22283;BME280;11310;51.528;21.204;2023-05-07T10:42:09;100843.56;;;8.12;100.00
22283;BME280;11310;51.528;21.204;2023-05-07T10:44:43;100848.69;;;8.15;100.00
22283;BME280;11310;51.528;21.204;2023-05-07T10:47:20;100850.34;;;8.19;100.00
22283;BME280;11310;51.528;21.204;2023-05-07T10:50:23;100846.75;;;8.26;100.00
22283;BME280;11310;51.528;21.204;2023-05-07T10:53:23;100859.66;;;8.32;100.00
22283;BME280;11310;51.528;21.204;2023-05-07T10:56:25;100849.19;;;8.33;100.00
22283;BME280;11310;51.528;21.204;2023-05-07T10:59:34;100865.69;;;8.34;100.00
22283;BME280;11310;51.528;21.204;2023-05-07T11:02:18;100861.34;;;8.34;100.00
22283;BME280;11310;51.528;21.204;2023-05-07T11:05:19;100855.25;;;8.34;100.00
22283;BME280;11310;51.528;21.204;2023-05-07T11:08:08;100865.69;;;8.34;100.00
22283;BME280;11310;51.528;21.204;2023-05-07T11:10:50;100865.69;;;8.34;100.00
22283;BME280;11310;51.528;21.204;2023-05-07T11:13:46;100867.22;;;8.44;100.00
22283;BME280;11310;51.528;21.204;2023-05-07T11:16:26;100864.25;;;8.57;100.00
22283;BME280;11310;51.528;21.204;2023-05-07T11:19:10;100872.63;;;8.71;100.00
22283;BME280;11310;51.528;21.204;2023-05-07T11:21:43;100882.09;;;8.77;100.00
22283;BME280;11310;51.528;21.204;2023-05-07T11:24:25;100878.56;;;8.78;100.00
22283;BME280;11310;51.528;21.204;2023-05-07T11:27:03;100880.19;;;8.83;100.00
22283;BME280;11310;51.528;21.204;2023-05-07T11:29:32;100880.13;;;8.85;100.00
22283;BME280;11310;51.528;21.204;2023-05-07T11:32:14;100880.25;;;8.80;100.00
22283;BME280;11310;51.528;21.204;2023-05-07T11:34:51;100883.09;;;8.71;100.00
22283;BME280;11310;51.528;21.204;2023-05-07T11:37:22;100879.88;;;8.60;100.00
22283;BME280;11310;51.528;21.204;2023-05-07T11:40:03;100880.72;;;8.61;100.00
22283;BME280;11310;51.528;21.204;2023-05-07T11:42:36;100894.31;;;8.75;100.00
22283;BME280;11310;51.528;21.204;2023-05-07T11:45:05;100897.13;;;9.02;100.00
22283;BME280;11310;51.528;21.204;2023-05-07T11:47:35;100894.38;;;9.39;100.00
22283;BME280;11310;51.528;21.204;2023-05-07T11:50:06;100898.84;;;9.66;100.00
22283;BME280;11310;51.528;21.204;2023-05-07T11:52:38;100893.09;;;9.84;99.36
22283;BME280;11310;51.528;21.204;2023-05-07T11:55:08;100894.38;;;10.00;99.12
22283;BME280;11310;51.528;21.204;2023-05-07T11:57:39;100890.66;;;10.07;99.21
22283;BME280;11310;51.528;21.204;2023-05-07T12:00:15;100892.63;;;9.99;99.11
22283;BME280;11310;51.528;21.204;2023-05-07T12:02:45;100891.22;;;9.87;99.75
22283;BME280;11310;51.528;21.204;2023-05-07T12:05:15;100898.41;;;9.81;100.00
22283;BME280;11310;51.528;21.204;2023-05-07T12:07:44;100899.59;;;9.69;100.00
22283;BME280;11310;51.528;21.204;2023-05-07T12:10:13;100901.88;;;9.52;100.00
22283;BME280;11310;51.528;21.204;2023-05-07T12:12:46;100902.25;;;9.37;100.00
22283;BME280;11310;51.528;21.204;2023-05-07T12:15:16;100909.47;;;9.31;100.00
22283;BME280;11310;51.528;21.204;2023-05-07T12:17:45;100909.69;;;9.22;100.00
22283;BME280;11310;51.528;21.204;2023-05-07T12:20:15;100915.34;;;9.05;100.00
22283;BME280;11310;51.528;21.204;2023-05-07T12:22:50;100923.47;;;8.96;100.00
22283;BME280;11310;51.528;21.204;2023-05-07T12:25:19;100920.88;;;8.95;100.00
22283;BME280;11310;51.528;21.204;2023-05-07T12:27:53;100922.38;;;9.03;100.00
22283;BME280;11310;51.528;21.204;2023-05-07T12:30:22;100922.94;;;9.16;100.00
22283;BME280;11310;51.528;21.204;2023-05-07T12:32:53;100923.53;;;9.27;100.00
22283;BME280;11310;51.528;21.204;2023-05-07T12:35:27;100926.94;;;9.29;100.00
22283;BME280;11310;51.528;21.204;2023-05-07T12:37:57;100920.94;;;9.25;100.00
22283;BME280;11310;51.528;21.204;2023-05-07T12:40:35;100921.13;;;9.19;100.00
22283;BME280;11310;51.528;21.204;2023-05-07T12:43:08;100921.16;;;9.18;100.00
22283;BME280;11310;51.528;21.204;2023-05-07T12:45:45;100922.84;;;9.19;100.00
22283;BME280;11310;51.528;21.204;2023-05-07T12:48:14;100934.03;;;9.25;100.00
22283;BME280;11310;51.528;21.204;2023-05-07T12:50:44;100925.16;;;9.31;100.00
22283;BME280;11310;51.528;21.204;2023-05-07T12:53:13;100928.34;;;9.42;100.00
22283;BME280;11310;51.528;21.204;2023-05-07T12:55:47;100928.16;;;9.48;99.91
22283;BME280;11310;51.528;21.204;2023-05-07T12:58:21;100928.75;;;9.59;99.86
22283;BME280;11310;51.528;21.204;2023-05-07T13:00:52;100929.44;;;9.65;99.22
22283;BME280;11310;51.528;21.204;2023-05-07T13:03:27;100928.50;;;9.68;98.76
22283;BME280;11310;51.528;21.204;2023-05-07T13:05:59;100932.19;;;9.61;98.48
22283;BME280;11310;51.528;21.204;2023-05-07T13:08:30;100927.25;;;9.49;99.10